Beggs, OK (74421)

6:06 AM CST on February 27, 2017 (GMT -0600)
Double S Ranch | | Change Station

Elev 778 ft 35.79 °N, 96.07 °W | Updated 11 seconds ago

Mostly Cloudy
Mostly Cloudy
43.7 °F
Feels Like 40 °F
N
7.0
Wind Variable Wind from SE
Gusts 9.0 mph

Today
High -- | Low -- °F
--% Chance of Precip.
Yesterday
High -- | Low -- °F
Precip. -- in
Pressure 29.97 in
Visibility 10.0 miles
Clouds Overcast 2800 ft
Windchill 40 °F
Dew Point 36 °F
Humidity 75%
Rainfall 0.00 in
Snow Depth Not available.
6:56 AM 6:17 PM
New Moon, 1% visible
METAR KOKM 271155Z AUTO 15006KT 10SM OVC028 06/03 A2997 RMK AO2 LTG DSNT SE T00620031 10070 20022
Pressure 29.97 in
Visibility 10.0 miles
Clouds Overcast 2800 ft
Windchill 40 °F
Dew Point 36 °F
Humidity 75%
Rainfall 0.00 in
Snow Depth Not available.
6:56 AM 6:17 PM
New Moon, 1% visible
METAR KOKM 271155Z AUTO 15006KT 10SM OVC028 06/03 A2997 RMK AO2 LTG DSNT SE T00620031 10070 20022

Get Your Daily Forecast Email!

Thanks for signing up!

Be on the lookout for a verification email in your inbox.

You'll start receiving the daily forecast at 8 AM.

×

10-Day Weather Forecast

Almanac

Astronomy

Feb. 27, 2017 Rise Set
Actual Time
Civil Twilight
Nautical Twilight
Astronomical Twilight
Moon
Length of Visible Light
Length of Day
Tomorrow will be .
, % of the Moon is Illuminated

Today's Extremes

State Highs State Lows

Community

WunderPhotos

Upload Photos

1,962,540 photos uploaded!

WunderBlog® & News

Nearby

Air Quality

  Air Quality AQ Index Pollutant
Not available.

Snow Depth

Station Depth Elevation

Earthquake Activity

City Distance Mag. Time & Date
Minimum magnitude displayed is 2.5.

Coastal Water Temperatures

Place Temperature

Stations

Nearby Weather Stations

Station Location Temp. Windchill Dew Point Humidity Wind Precip. Elev Updated Type
                   

Watches & Warnings

There are currently no watches in effect.